createdAt,value
2022-08-26T00:01:37.683Z,76.57
2022-08-26T00:04:04.531Z,76.95
2022-08-26T00:06:33.401Z,75.68
2022-08-26T00:09:00.206Z,75.36
2022-08-26T00:11:27.263Z,77.11
2022-08-26T00:13:56.003Z,78.11
2022-08-26T00:16:24.534Z,76.81
2022-08-26T00:18:51.103Z,77.98
2022-08-26T00:21:17.739Z,77.71
2022-08-26T00:23:44.615Z,76.47
2022-08-26T00:26:11.458Z,77.38
2022-08-26T00:28:39.481Z,78.30
2022-08-26T00:31:07.169Z,78.25
2022-08-26T00:33:34.096Z,78.50
2022-08-26T00:36:01.651Z,80.02
2022-08-26T00:38:29.049Z,81.12
2022-08-26T00:40:57.092Z,81.83
2022-08-26T00:43:24.978Z,81.52
2022-08-26T00:46:11.009Z,80.88
2022-08-26T00:48:42.404Z,81.75
2022-08-26T00:51:16.820Z,81.22
2022-08-26T00:53:55.087Z,79.98
2022-08-26T00:56:30.973Z,78.51
2022-08-26T00:59:01.025Z,77.38
2022-08-26T01:01:28.363Z,79.00
2022-08-26T01:03:58.007Z,78.22
2022-08-26T01:06:25.053Z,78.20
2022-08-26T01:08:52.524Z,78.69
2022-08-26T01:11:19.936Z,78.02
2022-08-26T01:13:48.219Z,79.14
2022-08-26T01:16:16.392Z,79.17
2022-08-26T01:18:44.817Z,78.90
2022-08-26T01:21:36.295Z,78.46
2022-08-26T01:24:07.983Z,79.26
2022-08-26T01:26:43.182Z,78.81
2022-08-26T01:29:15.575Z,78.87
2022-08-26T01:31:49.613Z,78.58
2022-08-26T01:34:20.416Z,78.96
2022-08-26T01:36:51.424Z,78.63
2022-08-26T01:39:18.544Z,78.58
2022-08-26T01:41:46.251Z,78.46
2022-08-26T01:44:18.840Z,78.83
2022-08-26T01:46:48.860Z,79.97
2022-08-26T01:49:18.040Z,80.34
2022-08-26T01:51:46.452Z,80.04
2022-08-26T01:54:14.055Z,81.27
2022-08-26T01:56:41.419Z,80.87
2022-08-26T01:59:12.250Z,81.44
2022-08-26T02:01:39.246Z,81.92
2022-08-26T02:04:17.630Z,81.46
2022-08-26T02:06:45.031Z,81.18
2022-08-26T02:09:12.240Z,82.61
2022-08-26T02:11:39.332Z,82.05
2022-08-26T02:14:11.696Z,82.92
2022-08-26T02:16:42.281Z,82.81
2022-08-26T02:19:17.209Z,82.90
2022-08-26T02:21:46.438Z,82.84
2022-08-26T02:24:24.594Z,83.54
2022-08-26T02:26:54.138Z,84.59
2022-08-26T02:29:35.077Z,84.58
2022-08-26T02:32:02.803Z,85.66
2022-08-26T02:34:32.270Z,85.94
2022-08-26T02:37:11.163Z,88.25
2022-08-26T02:39:40.021Z,89.09
2022-08-26T02:42:07.075Z,87.67
2022-08-26T02:44:33.767Z,88.96
2022-08-26T02:47:01.178Z,87.99
2022-08-26T02:49:30.367Z,88.28
2022-08-26T02:51:57.118Z,89.60
2022-08-26T02:54:23.598Z,88.82
2022-08-26T02:56:51.326Z,88.89
2022-08-26T02:59:17.918Z,90.41
2022-08-26T03:01:45.215Z,90.02
2022-08-26T03:04:13.133Z,90.43
2022-08-26T03:06:42.179Z,92.64
2022-08-26T03:09:09.130Z,93.95
2022-08-26T03:11:36.717Z,95.33
2022-08-26T03:14:04.571Z,96.03
2022-08-26T03:16:33.246Z,97.28
2022-08-26T03:19:00.897Z,98.35
2022-08-26T03:21:27.356Z,97.97
2022-08-26T03:23:53.828Z,98.07
2022-08-26T03:26:20.349Z,100.00
2022-08-26T03:29:06.281Z,100.00
2022-08-26T03:31:33.048Z,100.00
2022-08-26T03:34:00.048Z,100.00
2022-08-26T03:36:27.199Z,100.00
2022-08-26T03:38:54.365Z,100.00
2022-08-26T03:41:21.367Z,100.00
2022-08-26T03:43:50.709Z,100.00
2022-08-26T03:46:18.651Z,100.00
2022-08-26T03:48:45.695Z,100.00
2022-08-26T03:51:14.512Z,100.00
2022-08-26T03:53:45.702Z,100.00
2022-08-26T03:56:12.814Z,100.00
2022-08-26T03:58:39.407Z,100.00
2022-08-26T04:01:09.894Z,100.00
2022-08-26T04:03:54.931Z,100.00
2022-08-26T04:06:21.712Z,100.00
2022-08-26T04:08:48.366Z,100.00
2022-08-26T04:11:20.406Z,100.00
2022-08-26T04:13:47.992Z,100.00
2022-08-26T04:16:17.488Z,100.00
2022-08-26T04:18:46.779Z,100.00
2022-08-26T04:21:15.341Z,100.00
2022-08-26T04:23:47.504Z,100.00
2022-08-26T04:26:15.170Z,100.00
2022-08-26T04:28:41.854Z,100.00
2022-08-26T04:31:12.395Z,100.00
2022-08-26T04:33:41.863Z,100.00
2022-08-26T04:36:09.084Z,100.00
2022-08-26T04:38:35.696Z,100.00
2022-08-26T04:41:03.311Z,100.00
2022-08-26T04:43:32.187Z,100.00
2022-08-26T04:46:01.223Z,100.00
2022-08-26T04:48:32.095Z,100.00
2022-08-26T04:50:59.947Z,100.00
2022-08-26T04:53:28.236Z,100.00
2022-08-26T04:55:55.418Z,100.00
2022-08-26T04:58:23.528Z,100.00
2022-08-26T05:00:52.061Z,100.00
2022-08-26T05:03:19.285Z,100.00
2022-08-26T05:05:47.788Z,100.00
2022-08-26T05:08:15.288Z,100.00
2022-08-26T05:10:43.725Z,100.00
2022-08-26T05:13:12.684Z,100.00
2022-08-26T05:15:42.283Z,100.00
2022-08-26T05:18:08.862Z,100.00
2022-08-26T05:20:46.384Z,100.00
2022-08-26T05:23:14.847Z,100.00
2022-08-26T05:25:45.738Z,100.00
2022-08-26T05:28:14.878Z,100.00
2022-08-26T05:30:42.541Z,100.00
2022-08-26T05:33:12.024Z,100.00
2022-08-26T05:35:39.167Z,100.00
2022-08-26T05:38:12.720Z,100.00
2022-08-26T05:40:43.117Z,100.00
2022-08-26T05:43:13.312Z,100.00
2022-08-26T05:45:46.091Z,100.00
2022-08-26T05:48:14.630Z,100.00
2022-08-26T05:50:44.484Z,100.00
2022-08-26T05:53:13.165Z,100.00
2022-08-26T05:55:48.077Z,100.00
2022-08-26T05:58:14.876Z,100.00
2022-08-26T06:00:45.115Z,100.00
2022-08-26T06:03:11.754Z,100.00
2022-08-26T06:05:39.476Z,100.00
2022-08-26T06:08:13.834Z,100.00
2022-08-26T06:10:44.984Z,100.00
2022-08-26T06:13:13.282Z,100.00
2022-08-26T06:15:42.975Z,100.00
2022-08-26T06:18:11.190Z,100.00
2022-08-26T06:20:43.532Z,100.00
2022-08-26T06:23:40.456Z,100.00
2022-08-26T06:26:07.558Z,100.00
2022-08-26T06:28:37.712Z,100.00
2022-08-26T06:31:04.506Z,100.00
2022-08-26T06:33:31.205Z,100.00
2022-08-26T06:35:58.411Z,100.00
2022-08-26T06:38:25.453Z,100.00
2022-08-26T06:40:55.058Z,100.00
2022-08-26T06:43:24.860Z,100.00
2022-08-26T06:45:52.166Z,100.00
2022-08-26T06:48:20.422Z,100.00
2022-08-26T06:50:47.968Z,100.00
2022-08-26T06:53:17.083Z,100.00
2022-08-26T06:55:46.113Z,100.00
2022-08-26T06:58:14.159Z,100.00
2022-08-26T07:00:47.138Z,100.00
2022-08-26T07:03:14.086Z,100.00
2022-08-26T07:05:40.752Z,100.00
2022-08-26T07:08:07.242Z,100.00
2022-08-26T07:10:35.556Z,100.00
2022-08-26T07:13:02.707Z,100.00
2022-08-26T07:15:31.466Z,100.00
2022-08-26T07:17:58.186Z,100.00
2022-08-26T07:20:24.735Z,100.00
2022-08-26T07:22:51.603Z,100.00
2022-08-26T07:25:19.317Z,100.00
2022-08-26T07:27:46.848Z,100.00
2022-08-26T07:30:20.853Z,100.00
2022-08-26T07:32:47.455Z,100.00
2022-08-26T07:35:14.759Z,100.00
2022-08-26T07:37:42.331Z,100.00
2022-08-26T07:40:10.096Z,100.00
2022-08-26T07:42:36.652Z,100.00
2022-08-26T07:45:04.177Z,100.00
2022-08-26T07:47:30.621Z,100.00
2022-08-26T07:49:57.790Z,100.00
2022-08-26T07:52:27.525Z,100.00
2022-08-26T07:54:55.938Z,100.00
2022-08-26T07:57:22.459Z,100.00
2022-08-26T07:59:50.960Z,100.00
2022-08-26T08:02:17.443Z,100.00
2022-08-26T08:04:44.029Z,100.00
2022-08-26T08:07:11.582Z,100.00
2022-08-26T08:09:38.502Z,100.00
2022-08-26T08:12:07.770Z,100.00
2022-08-26T08:14:36.475Z,100.00
2022-08-26T08:17:04.448Z,100.00
2022-08-26T08:19:36.811Z,100.00
2022-08-26T08:22:16.969Z,100.00
2022-08-26T08:24:44.594Z,100.00
2022-08-26T08:27:11.251Z,100.00
2022-08-26T08:29:38.623Z,100.00
2022-08-26T08:32:05.583Z,100.00
2022-08-26T08:34:37.947Z,100.00
2022-08-26T08:37:08.662Z,100.00
2022-08-26T08:39:37.045Z,100.00
2022-08-26T08:42:16.777Z,100.00
2022-08-26T08:44:52.118Z,100.00
2022-08-26T08:47:36.457Z,100.00
2022-08-26T08:50:52.301Z,100.00
2022-08-26T08:53:41.594Z,100.00
2022-08-26T08:56:15.662Z,100.00
2022-08-26T08:59:05.879Z,100.00
2022-08-26T09:01:52.247Z,100.00
2022-08-26T09:04:42.311Z,100.00
2022-08-26T09:07:13.427Z,100.00
2022-08-26T09:09:46.063Z,100.00
2022-08-26T09:12:29.353Z,100.00
2022-08-26T09:15:07.997Z,100.00
2022-08-26T09:18:04.561Z,100.00
2022-08-26T09:20:35.463Z,100.00
2022-08-26T09:23:03.678Z,100.00
2022-08-26T09:25:30.175Z,100.00
2022-08-26T09:27:57.791Z,100.00
2022-08-26T09:30:35.243Z,100.00
2022-08-26T09:33:01.758Z,100.00
2022-08-26T09:35:31.904Z,100.00
2022-08-26T09:37:59.002Z,100.00
2022-08-26T09:40:29.125Z,100.00
2022-08-26T09:43:22.182Z,100.00
2022-08-26T09:45:59.394Z,100.00
2022-08-26T09:48:30.446Z,100.00
2022-08-26T09:51:01.375Z,100.00
2022-08-26T09:53:33.136Z,100.00
2022-08-26T09:56:18.017Z,100.00
2022-08-26T09:58:47.306Z,100.00
2022-08-26T10:01:30.099Z,100.00
2022-08-26T10:04:31.120Z,100.00
2022-08-26T10:07:01.375Z,100.00
2022-08-26T10:09:33.204Z,100.00
2022-08-26T10:12:06.779Z,100.00
2022-08-26T10:14:39.824Z,100.00
2022-08-26T10:17:11.007Z,100.00
2022-08-26T10:19:56.640Z,100.00
2022-08-26T10:22:38.660Z,100.00
2022-08-26T10:25:09.878Z,100.00
2022-08-26T10:27:50.989Z,100.00
2022-08-26T10:30:22.288Z,100.00
2022-08-26T10:32:50.748Z,100.00
2022-08-26T10:35:19.260Z,100.00
2022-08-26T10:37:48.310Z,100.00
2022-08-26T10:40:18.355Z,99.76
2022-08-26T10:43:11.123Z,98.53
2022-08-26T10:45:44.148Z,99.20
2022-08-26T10:48:20.512Z,99.14
2022-08-26T10:50:48.042Z,99.21
2022-08-26T10:53:25.340Z,97.87
2022-08-26T10:56:19.234Z,98.75
2022-08-26T10:58:51.189Z,99.77
2022-08-26T11:01:45.724Z,99.79
2022-08-26T11:04:51.405Z,99.21
2022-08-26T11:07:44.275Z,98.17
2022-08-26T11:10:17.265Z,98.31
2022-08-26T11:12:45.335Z,97.96
2022-08-26T11:15:24.879Z,97.54
2022-08-26T11:17:51.441Z,97.89
2022-08-26T11:20:31.064Z,97.46
2022-08-26T11:23:23.044Z,97.34
2022-08-26T11:25:56.012Z,97.09
2022-08-26T11:28:34.309Z,96.14
2022-08-26T11:31:01.712Z,96.39
2022-08-26T11:33:43.851Z,96.51
2022-08-26T11:36:12.345Z,96.01
2022-08-26T11:38:42.811Z,96.37
2022-08-26T11:41:17.289Z,94.80
2022-08-26T11:43:45.299Z,94.34
2022-08-26T11:46:13.382Z,94.37
2022-08-26T11:48:43.240Z,93.59
2022-08-26T11:51:22.887Z,94.88
2022-08-26T11:53:49.703Z,93.92
2022-08-26T11:56:31.816Z,94.14
2022-08-26T11:59:01.044Z,94.09
2022-08-26T12:01:31.200Z,93.87
2022-08-26T12:03:59.686Z,92.56
2022-08-26T12:06:37.438Z,90.96
2022-08-26T12:09:20.555Z,91.96
2022-08-26T12:11:47.188Z,92.34
2022-08-26T12:14:24.249Z,92.24
2022-08-26T12:16:51.865Z,93.36
2022-08-26T12:19:33.404Z,93.06
2022-08-26T12:22:18.806Z,92.56
2022-08-26T12:24:59.616Z,92.41
2022-08-26T12:27:29.682Z,91.14
2022-08-26T12:30:19.297Z,90.62
2022-08-26T12:32:57.365Z,89.96
2022-08-26T12:35:25.407Z,90.13
2022-08-26T12:37:53.834Z,90.27
2022-08-26T12:40:43.164Z,90.74
2022-08-26T12:43:11.814Z,90.44
2022-08-26T12:45:45.419Z,90.43
2022-08-26T12:48:24.550Z,90.18
2022-08-26T12:50:52.140Z,90.71
2022-08-26T12:53:33.405Z,91.21
2022-08-26T12:56:17.468Z,89.70
2022-08-26T12:58:44.387Z,88.33
2022-08-26T13:01:10.938Z,87.96
2022-08-26T13:03:45.616Z,88.38
2022-08-26T13:06:16.324Z,87.51
2022-08-26T13:08:48.101Z,87.48
2022-08-26T13:11:42.848Z,86.30
2022-08-26T13:14:18.397Z,85.10
2022-08-26T13:16:51.271Z,85.24
2022-08-26T13:19:23.504Z,85.25
2022-08-26T13:21:53.844Z,85.71
2022-08-26T13:24:25.982Z,85.38
2022-08-26T13:26:52.691Z,86.34
2022-08-26T13:29:19.517Z,86.98
2022-08-26T13:31:47.336Z,85.14
2022-08-26T13:34:19.097Z,85.03
2022-08-26T13:36:47.161Z,85.08
2022-08-26T13:39:14.046Z,84.35
2022-08-26T13:41:40.997Z,84.30
2022-08-26T13:44:07.479Z,84.49
2022-08-26T13:46:34.157Z,85.09
2022-08-26T13:49:00.856Z,85.88
2022-08-26T13:51:27.985Z,85.84
2022-08-26T13:53:54.714Z,85.40
2022-08-26T13:56:22.827Z,85.25
2022-08-26T13:58:49.631Z,85.61
2022-08-26T14:01:16.981Z,85.83
2022-08-26T14:03:44.020Z,85.87
2022-08-26T14:06:10.712Z,86.36
2022-08-26T14:08:38.700Z,86.27
2022-08-26T14:11:05.663Z,85.94
2022-08-26T14:13:32.189Z,86.38
2022-08-26T14:16:01.327Z,86.00
2022-08-26T14:18:36.349Z,87.53
2022-08-26T14:21:07.367Z,86.69
2022-08-26T14:23:34.279Z,86.54
2022-08-26T14:26:03.607Z,87.46
2022-08-26T14:28:30.154Z,88.51
2022-08-26T14:30:58.132Z,89.89
2022-08-26T14:33:28.803Z,90.26
2022-08-26T14:36:17.851Z,90.97
2022-08-26T14:38:45.847Z,91.78
2022-08-26T14:41:13.919Z,91.66
2022-08-26T14:43:45.768Z,91.93
2022-08-26T14:46:14.362Z,92.36
2022-08-26T14:48:41.055Z,93.13
2022-08-26T14:51:07.760Z,92.70
2022-08-26T14:53:52.865Z,93.38
2022-08-26T14:56:19.533Z,93.76
2022-08-26T14:58:46.844Z,93.15
2022-08-26T15:01:13.378Z,92.63
2022-08-26T15:03:39.846Z,91.62
2022-08-26T15:06:06.559Z,92.04
2022-08-26T15:08:36.508Z,91.39
2022-08-26T15:11:03.829Z,89.79
2022-08-26T15:13:30.664Z,87.90
2022-08-26T15:15:57.262Z,87.83
2022-08-26T15:18:23.902Z,87.78
2022-08-26T15:20:50.348Z,88.06
2022-08-26T15:23:16.814Z,87.67
2022-08-26T15:25:44.935Z,87.66
2022-08-26T15:28:11.860Z,87.31
2022-08-26T15:30:38.549Z,87.87
2022-08-26T15:33:05.047Z,87.45
2022-08-26T15:35:33.055Z,87.58
2022-08-26T15:38:04.868Z,87.42
2022-08-26T15:40:31.365Z,86.74
2022-08-26T15:43:17.776Z,88.13
2022-08-26T15:45:44.507Z,88.20
2022-08-26T15:48:11.051Z,88.20
2022-08-26T15:50:49.984Z,88.67
2022-08-26T15:53:16.494Z,87.84
2022-08-26T15:55:43.053Z,87.89
2022-08-26T15:58:10.396Z,88.38
2022-08-26T16:00:37.568Z,88.09
2022-08-26T16:03:04.100Z,87.95
2022-08-26T16:05:30.594Z,88.70
2022-08-26T16:07:57.714Z,88.72
2022-08-26T16:10:24.357Z,88.32
2022-08-26T16:12:50.809Z,88.66
2022-08-26T16:15:17.310Z,88.70
2022-08-26T16:17:44.112Z,88.87
2022-08-26T16:20:10.842Z,88.80
2022-08-26T16:22:37.375Z,88.84
2022-08-26T16:25:04.100Z,88.91
2022-08-26T16:27:32.363Z,89.13
2022-08-26T16:29:58.800Z,89.25
2022-08-26T16:32:28.279Z,89.10
2022-08-26T16:34:57.807Z,89.15
2022-08-26T16:37:24.411Z,89.11
2022-08-26T16:39:50.955Z,89.16
2022-08-26T16:42:17.442Z,89.63
2022-08-26T16:44:46.995Z,88.66
2022-08-26T16:47:15.518Z,88.65
2022-08-26T16:49:42.309Z,89.37
2022-08-26T16:52:10.533Z,88.99
2022-08-26T16:54:39.721Z,89.23
2022-08-26T16:57:07.970Z,88.50
2022-08-26T16:59:34.923Z,88.38
2022-08-26T17:02:02.189Z,87.96
2022-08-26T17:04:29.448Z,87.96
2022-08-26T17:06:56.580Z,87.56
2022-08-26T17:09:23.062Z,86.68
2022-08-26T17:11:50.267Z,87.25
2022-08-26T17:14:16.854Z,87.30
2022-08-26T17:16:44.494Z,87.42
2022-08-26T17:19:11.073Z,87.11
2022-08-26T17:21:39.086Z,86.94
2022-08-26T17:24:06.759Z,86.85
2022-08-26T17:26:33.402Z,86.97
2022-08-26T17:29:00.052Z,87.20
2022-08-26T17:31:26.936Z,87.51
2022-08-26T17:33:55.381Z,87.58
2022-08-26T17:36:28.139Z,87.36
2022-08-26T17:38:56.225Z,87.66
2022-08-26T17:41:22.719Z,88.23
2022-08-26T17:43:49.200Z,88.31
2022-08-26T17:46:15.731Z,88.53
2022-08-26T17:48:42.307Z,87.63
2022-08-26T17:51:15.076Z,88.64
2022-08-26T17:53:42.065Z,88.42
2022-08-26T17:56:12.122Z,88.36
2022-08-26T17:58:40.473Z,88.50
2022-08-26T18:01:07.430Z,88.09
2022-08-26T18:03:35.060Z,88.69
2022-08-26T18:06:02.249Z,88.31
2022-08-26T18:08:28.775Z,88.79
2022-08-26T18:10:55.269Z,88.98
2022-08-26T18:13:21.748Z,88.38
2022-08-26T18:15:48.276Z,88.38
2022-08-26T18:18:15.992Z,88.75
2022-08-26T18:20:44.876Z,88.65
2022-08-26T18:23:12.970Z,88.90
2022-08-26T18:25:43.640Z,88.87
2022-08-26T18:28:10.476Z,89.13
2022-08-26T18:30:37.538Z,89.18
2022-08-26T18:33:04.279Z,89.64
2022-08-26T18:35:30.760Z,89.60
2022-08-26T18:37:58.002Z,89.12
2022-08-26T18:40:27.991Z,89.58
2022-08-26T18:42:54.540Z,89.67
2022-08-26T18:45:21.078Z,90.27
2022-08-26T18:47:47.500Z,90.56
2022-08-26T18:50:14.289Z,90.17
2022-08-26T18:52:40.926Z,89.93
2022-08-26T18:55:07.993Z,90.04
2022-08-26T18:57:34.524Z,90.79
2022-08-26T19:00:02.265Z,90.21
2022-08-26T19:02:28.883Z,90.78
2022-08-26T19:04:57.168Z,90.84
2022-08-26T19:07:23.652Z,91.35
2022-08-26T19:09:53.806Z,90.89
2022-08-26T19:12:20.714Z,90.91
2022-08-26T19:14:47.214Z,90.82
2022-08-26T19:17:13.847Z,91.08
2022-08-26T19:19:40.381Z,91.54
2022-08-26T19:22:07.577Z,91.66
2022-08-26T19:24:34.414Z,91.26
2022-08-26T19:27:02.829Z,90.98
2022-08-26T19:29:34.179Z,91.54
2022-08-26T19:32:01.895Z,91.70
2022-08-26T19:34:29.485Z,91.70
2022-08-26T19:36:58.220Z,92.63
2022-08-26T19:39:26.426Z,92.43
2022-08-26T19:41:53.429Z,92.52
2022-08-26T19:44:40.450Z,92.33
2022-08-26T19:47:10.272Z,92.67
2022-08-26T19:49:37.419Z,92.59
2022-08-26T19:52:05.611Z,92.83
2022-08-26T19:54:32.144Z,91.24
2022-08-26T19:56:58.603Z,91.59
2022-08-26T19:59:25.111Z,91.48
2022-08-26T20:02:00.782Z,90.87
2022-08-26T20:04:28.763Z,91.12
2022-08-26T20:06:57.632Z,91.92
2022-08-26T20:09:25.320Z,92.30
2022-08-26T20:11:52.031Z,92.44
2022-08-26T20:14:23.265Z,92.65
2022-08-26T20:16:49.811Z,93.53
2022-08-26T20:19:37.533Z,93.30
2022-08-26T20:22:05.982Z,94.10
2022-08-26T20:24:33.289Z,93.63
2022-08-26T20:27:03.315Z,93.22
2022-08-26T20:29:32.952Z,93.72
2022-08-26T20:31:59.538Z,93.87
2022-08-26T20:34:26.335Z,93.42
2022-08-26T20:36:52.984Z,92.89
2022-08-26T20:39:23.312Z,92.82
2022-08-26T20:41:49.932Z,93.13
2022-08-26T20:44:17.573Z,93.85
2022-08-26T20:46:44.644Z,94.02
2022-08-26T20:49:11.250Z,93.91
2022-08-26T20:51:37.908Z,94.74
2022-08-26T20:54:06.508Z,94.47
2022-08-26T20:56:33.102Z,94.66
2022-08-26T20:59:01.102Z,95.25
2022-08-26T21:01:33.514Z,95.11
2022-08-26T21:04:02.795Z,95.21
2022-08-26T21:06:29.907Z,95.04
2022-08-26T21:08:57.074Z,95.06
2022-08-26T21:11:25.115Z,95.54
2022-08-26T21:14:15.892Z,95.55
2022-08-26T21:16:39.955Z,95.94
2022-08-26T21:19:10.093Z,95.74
2022-08-26T21:21:36.949Z,95.73
2022-08-26T21:24:03.783Z,96.68
2022-08-26T21:26:30.241Z,95.59
2022-08-26T21:28:56.739Z,95.77
2022-08-26T21:31:24.896Z,94.91
2022-08-26T21:33:51.745Z,95.60
2022-08-26T21:36:19.327Z,95.40
2022-08-26T21:38:45.888Z,95.91
2022-08-26T21:41:16.331Z,95.23
2022-08-26T21:43:42.925Z,96.25
2022-08-26T21:46:12.552Z,96.11
2022-08-26T21:48:40.237Z,97.26
2022-08-26T21:51:07.291Z,97.00
2022-08-26T21:53:35.155Z,97.85
2022-08-26T21:56:11.883Z,99.21
2022-08-26T21:58:39.414Z,97.72
2022-08-26T22:01:11.267Z,98.76
2022-08-26T22:03:47.560Z,98.79
2022-08-26T22:06:16.666Z,99.60
2022-08-26T22:08:43.595Z,99.05
2022-08-26T22:11:10.340Z,100.00
2022-08-26T22:13:39.844Z,100.00
2022-08-26T22:16:07.316Z,100.00
2022-08-26T22:18:34.658Z,100.00
2022-08-26T22:21:05.101Z,100.00
2022-08-26T22:23:31.950Z,100.00
2022-08-26T22:25:59.320Z,100.00
2022-08-26T22:28:25.977Z,100.00
2022-08-26T22:30:52.457Z,100.00
2022-08-26T22:33:19.202Z,100.00
2022-08-26T22:35:48.639Z,100.00
2022-08-26T22:38:15.641Z,100.00
2022-08-26T22:40:49.403Z,100.00
2022-08-26T22:43:17.967Z,100.00
2022-08-26T22:45:47.990Z,100.00
2022-08-26T22:48:17.471Z,100.00
2022-08-26T22:50:45.783Z,100.00
2022-08-26T22:53:13.308Z,100.00
2022-08-26T22:55:39.838Z,100.00
2022-08-26T22:58:07.135Z,100.00
2022-08-26T23:00:34.321Z,100.00
2022-08-26T23:03:02.805Z,100.00
2022-08-26T23:05:29.661Z,100.00
2022-08-26T23:07:56.724Z,100.00
2022-08-26T23:10:24.066Z,100.00
2022-08-26T23:12:52.317Z,100.00
2022-08-26T23:15:20.274Z,100.00
2022-08-26T23:17:47.676Z,100.00
2022-08-26T23:20:24.381Z,100.00
2022-08-26T23:22:50.871Z,100.00
2022-08-26T23:25:17.342Z,100.00
2022-08-26T23:27:44.324Z,100.00
2022-08-26T23:30:15.100Z,100.00
2022-08-26T23:32:41.736Z,100.00
2022-08-26T23:35:09.768Z,100.00
2022-08-26T23:37:43.599Z,100.00
2022-08-26T23:40:21.180Z,100.00
2022-08-26T23:42:47.933Z,100.00
2022-08-26T23:45:18.245Z,100.00
2022-08-26T23:47:45.415Z,100.00
2022-08-26T23:50:13.074Z,100.00
2022-08-26T23:53:14.879Z,100.00
2022-08-26T23:55:41.306Z,100.00
2022-08-26T23:58:07.768Z,100.00
